Time;durP1;ratioP1;P1;durP2;ratioP2;P2;SDS_P1;SDS_P2;PMS_P1;PMS_P2;Temp;Humidity;BMP_temperature;BMP_pressure;BME280_temperature;BME280_humidity;BME280_pressure;Samples;Min_cycle;Max_cycle;Signal;HPM_P1;HPM_P2
2023/01/13 00:01:15;;;;;;;15.40;8.00;;;;;;;3.78;65.18;102343.73;106842;1274;25285;-51
2023/01/13 00:03:42;;;;;;;14.50;7.80;;;;;;;3.79;65.20;102342.72;107078;1267;24195;-51
2023/01/13 00:06:17;;;;;;;13.80;8.00;;;;;;;3.81;65.11;102345.36;107130;1272;25331;-51
2023/01/13 00:08:48;;;;;;;15.70;7.90;;;;;;;3.80;64.95;102346.54;107175;1270;22518;-50
2023/01/13 00:11:16;;;;;;;13.60;7.30;;;;;;;3.79;65.04;102356.64;106859;1269;22537;-51
2023/01/13 00:13:43;;;;;;;15.30;8.10;;;;;;;3.79;65.15;102365.91;106872;1270;22547;-51
2023/01/13 00:16:16;;;;;;;16.40;7.90;;;;;;;3.79;64.80;102359.21;106059;1274;1002713;-51
2023/01/13 00:18:44;;;;;;;14.20;7.40;;;;;;;3.78;64.82;102351.29;107116;1272;23237;-50
2023/01/13 00:21:16;;;;;;;17.80;8.90;;;;;;;3.75;64.73;102347.25;106877;1270;25418;-51
2023/01/13 00:23:44;;;;;;;16.70;8.20;;;;;;;3.74;64.65;102340.17;107152;1270;25357;-51
2023/01/13 00:26:18;;;;;;;18.30;8.10;;;;;;;3.72;65.01;102338.91;107093;1268;25059;-51
2023/01/13 00:28:45;;;;;;;14.70;7.80;;;;;;;3.73;64.85;102333.46;106382;1264;1002959;-51
2023/01/13 00:31:17;;;;;;;14.20;8.50;;;;;;;3.74;64.71;102329.86;107101;1271;25369;-51
2023/01/13 00:33:47;;;;;;;15.10;8.20;;;;;;;3.74;64.97;102332.45;106385;1270;1003096;-51
2023/01/13 00:36:16;;;;;;;14.60;8.50;;;;;;;3.76;64.78;102334.91;107089;1268;24215;-51
2023/01/13 00:38:44;;;;;;;14.80;8.00;;;;;;;3.78;64.71;102340.13;107070;1251;25515;-51
2023/01/13 00:41:14;;;;;;;16.70;8.10;;;;;;;3.81;64.83;102340.89;107158;1268;25337;-52
2023/01/13 00:43:41;;;;;;;16.00;8.30;;;;;;;3.81;64.50;102339.88;106096;1270;1003372;-51
2023/01/13 00:46:10;;;;;;;14.20;7.30;;;;;;;3.82;64.46;102339.39;107059;1272;25310;-51
2023/01/13 00:48:39;;;;;;;15.90;8.40;;;;;;;3.83;64.26;102335.30;106250;1272;1003193;-51
2023/01/13 00:51:08;;;;;;;15.40;8.60;;;;;;;3.82;63.92;102336.48;107105;1267;24387;-51
2023/01/13 00:53:37;;;;;;;18.80;8.40;;;;;;;3.80;63.92;102335.55;107102;1267;24029;-51
2023/01/13 00:56:13;;;;;;;18.00;8.80;;;;;;;3.80;64.10;102337.27;106753;1274;25392;-51
2023/01/13 00:58:41;;;;;;;15.10;8.30;;;;;;;3.80;64.21;102343.61;107084;1269;25322;-49
2023/01/13 01:01:10;;;;;;;17.50;8.00;;;;;;;3.78;64.22;102333.27;107085;1271;25336;-49
2023/01/13 01:03:37;;;;;;;15.00;8.30;;;;;;;3.75;64.38;102329.90;107067;1267;22552;-52
2023/01/13 01:06:07;;;;;;;12.20;7.90;;;;;;;3.78;64.15;102326.41;107109;1267;26548;-51
2023/01/13 01:08:34;;;;;;;15.90;8.20;;;;;;;3.78;64.36;102319.20;106347;1266;1002899;-51
2023/01/13 01:11:06;;;;;;;16.80;9.10;;;;;;;3.76;64.09;102309.68;107099;1251;25476;-51
2023/01/13 01:13:34;;;;;;;15.70;9.20;;;;;;;3.74;64.18;102312.20;106127;1274;1003103;-51
2023/01/13 01:16:09;;;;;;;22.30;9.20;;;;;;;3.71;64.04;102317.09;107122;1267;25344;-52
2023/01/13 01:18:38;;;;;;;19.80;8.90;;;;;;;3.68;64.19;102322.13;106938;1272;22539;-51
2023/01/13 01:21:06;;;;;;;15.60;8.70;;;;;;;3.67;64.15;102320.04;107008;1272;24209;-51
2023/01/13 01:23:34;;;;;;;17.20;8.50;;;;;;;3.66;64.35;102317.61;107253;1270;23253;-51
2023/01/13 01:26:11;;;;;;;18.50;9.10;;;;;;;3.66;64.11;102315.73;106274;1268;1003192;-52
2023/01/13 01:28:39;;;;;;;18.60;9.40;;;;;;;3.62;64.11;102312.31;107024;1267;25340;-52
2023/01/13 01:31:07;;;;;;;16.60;9.10;;;;;;;3.57;64.12;102310.27;106812;1270;25325;-52
2023/01/13 01:33:35;;;;;;;20.60;8.60;;;;;;;3.54;64.40;102311.38;107052;1272;22537;-51
2023/01/13 01:36:02;;;;;;;14.80;8.90;;;;;;;3.52;64.73;102313.02;107036;1252;25402;-51
2023/01/13 01:38:29;;;;;;;14.30;8.70;;;;;;;3.49;64.46;102313.45;107024;1269;25517;-51
2023/01/13 01:40:57;;;;;;;17.80;9.80;;;;;;;3.46;64.32;102319.37;107117;1269;25357;-52
2023/01/13 01:43:57;;;;;;;13.80;8.30;;;;;;;3.44;64.57;102315.89;107114;1266;25478;-51
2023/01/13 01:46:26;;;;;;;16.90;9.10;;;;;;;3.44;64.77;102318.80;107059;1268;22646;-51
2023/01/13 01:48:56;;;;;;;21.20;10.00;;;;;;;3.45;64.76;102318.13;106986;1274;22527;-51
2023/01/13 01:51:23;;;;;;;16.10;8.90;;;;;;;3.44;64.82;102319.83;106802;1274;22632;-51
2023/01/13 01:53:50;;;;;;;17.60;8.90;;;;;;;3.42;64.86;102312.21;106120;1272;1003050;-51
2023/01/13 01:56:17;;;;;;;15.40;8.70;;;;;;;3.40;64.74;102308.89;106787;1272;25418;-52
2023/01/13 01:58:48;;;;;;;20.50;10.20;;;;;;;3.21;65.37;102298.52;106981;1270;25388;-51
2023/01/13 02:01:15;;;;;;;15.50;9.20;;;;;;;3.10;65.82;102291.80;107239;1269;25396;-51
2023/01/13 02:03:46;;;;;;;16.00;9.40;;;;;;;3.08;66.18;102291.56;107142;1272;25424;-51
2023/01/13 02:06:13;;;;;;;16.10;8.80;;;;;;;3.08;66.16;102286.41;106337;1267;1002826;-52
2023/01/13 02:08:41;;;;;;;17.60;9.50;;;;;;;3.07;66.28;102282.43;107011;1273;22561;-51
2023/01/13 02:12:28;;;;;;;18.00;9.10;;;;;;;3.07;66.35;102282.59;107030;1270;25312;-51
2023/01/13 02:14:12;;;;;;;14.90;8.40;;;;;;;3.07;66.51;102292.91;106906;1274;25364;-51
2023/01/13 02:17:03;;;;;;;15.00;8.30;;;;;;;3.10;66.54;102289.21;107162;1267;22579;-51
2023/01/13 02:19:56;;;;;;;18.90;8.90;;;;;;;3.11;66.32;102278.46;107156;1267;25458;-51
2023/01/13 02:22:45;;;;;;;18.90;9.70;;;;;;;3.11;66.36;102280.67;106398;1267;1003774;-51
2023/01/13 02:25:54;;;;;;;17.10;9.10;;;;;;;3.10;66.40;102283.23;107151;1269;22523;-51
2023/01/13 02:28:34;;;;;;;15.70;9.20;;;;;;;3.08;66.40;102279.55;106708;1276;25396;-50
2023/01/13 02:34:06;;;;;;;14.60;8.60;;;;;;;3.04;66.41;102298.10;106617;1276;25404;-50
2023/01/13 02:36:48;;;;;;;17.10;9.40;;;;;;;3.05;66.56;102298.33;106555;1279;22648;-51
2023/01/13 02:39:40;;;;;;;19.90;9.60;;;;;;;3.06;66.62;102292.00;106369;1279;24915;-50
2023/01/13 02:45:11;;;;;;;13.70;7.60;;;;;;;3.09;66.70;102291.73;106563;1277;25564;-51
2023/01/13 02:47:38;;;;;;;21.20;8.80;;;;;;;3.09;66.89;102292.27;106678;1272;24372;-51
2023/01/13 02:50:09;;;;;;;14.60;8.90;;;;;;;3.10;66.90;102291.28;105673;1274;1003728;-50
2023/01/13 02:52:49;;;;;;;15.90;8.30;;;;;;;3.11;67.01;102284.30;106505;1275;22748;-51
2023/01/13 02:55:19;;;;;;;16.90;8.10;;;;;;;3.15;67.24;102287.65;106585;1276;25110;-51
2023/01/13 02:57:46;;;;;;;16.90;9.20;;;;;;;3.18;67.48;102282.28;106765;1273;22773;-51
2023/01/13 03:00:15;;;;;;;21.10;8.40;;;;;;;3.23;67.68;102278.49;107014;1273;25333;-51
2023/01/13 03:02:42;;;;;;;12.80;8.10;;;;;;;3.28;67.84;102282.77;107073;1269;25361;-51
2023/01/13 03:05:13;;;;;;;14.70;6.80;;;;;;;3.35;68.05;102284.73;107097;1273;25335;-51
2023/01/13 03:08:27;;;;;;;11.20;6.10;;;;;;;3.44;68.01;102286.02;107113;1267;22524;-51
2023/01/13 03:11:10;;;;;;;13.80;6.20;;;;;;;3.56;68.10;102283.66;106278;1276;25631;-51
2023/01/13 03:13:40;;;;;;;11.60;6.30;;;;;;;3.62;68.24;102278.35;106604;1275;25347;-50
2023/01/13 03:16:08;;;;;;;13.80;6.10;;;;;;;3.68;68.39;102270.13;106707;1273;25408;-50
2023/01/13 03:19:25;;;;;;;10.70;6.00;;;;;;;3.74;68.03;102267.21;106837;1273;25385;-50
2023/01/13 03:21:58;;;;;;;14.60;6.80;;;;;;;3.81;68.32;102267.61;106303;1279;25485;-51
2023/01/13 03:24:29;;;;;;;13.70;5.80;;;;;;;3.87;68.31;102263.66;105551;1280;1002971;-50
2023/01/13 03:27:10;;;;;;;14.10;6.00;;;;;;;3.90;68.26;102260.67;106076;1277;25345;-51
2023/01/13 03:29:40;;;;;;;13.30;5.70;;;;;;;3.91;68.33;102267.77;106208;1280;24782;-50
2023/01/13 03:32:31;;;;;;;10.90;6.20;;;;;;;3.93;68.24;102271.23;106452;1279;25335;-50
2023/01/13 03:35:00;;;;;;;12.30;6.50;;;;;;;3.99;68.16;102279.83;105312;1282;1003424;-51
2023/01/13 03:37:31;;;;;;;9.80;5.70;;;;;;;4.03;68.23;102277.88;105606;1280;1003665;-50
2023/01/13 03:40:00;;;;;;;9.60;5.80;;;;;;;4.07;68.19;102279.20;106236;1280;25346;-50
2023/01/13 03:42:29;;;;;;;11.80;6.00;;;;;;;4.10;68.13;102271.22;106294;1282;22966;-50
2023/01/13 03:45:04;;;;;;;11.00;6.20;;;;;;;4.11;68.01;102270.55;106104;1281;22652;-50
2023/01/13 03:47:35;;;;;;;14.20;5.90;;;;;;;4.10;68.04;102275.34;106374;1276;24335;-50
2023/01/13 03:50:29;;;;;;;12.80;7.20;;;;;;;4.12;68.27;102276.09;106078;1273;1003542;-50
2023/01/13 03:53:05;;;;;;;8.30;5.40;;;;;;;4.15;67.92;102283.74;106164;1280;25462;-50
2023/01/13 03:55:38;;;;;;;10.90;5.20;;;;;;;4.17;67.81;102284.98;105933;1285;26284;-50
2023/01/13 03:58:15;;;;;;;10.30;5.10;;;;;;;4.17;67.86;102280.69;106328;1279;24212;-50
2023/01/13 04:01:15;;;;;;;7.80;5.10;;;;;;;4.16;67.58;102275.35;106607;1274;24398;-50
2023/01/13 04:03:49;;;;;;;6.40;4.30;;;;;;;4.17;67.54;102273.29;106278;1280;25383;-50
2023/01/13 04:06:31;;;;;;;9.50;4.20;;;;;;;4.14;67.57;102275.82;106243;1278;22590;-51
2023/01/13 04:09:03;;;;;;;13.10;5.20;;;;;;;4.12;67.54;102282.79;106240;1279;25471;-51
2023/01/13 04:11:32;;;;;;;;;;;;;;;4.11;67.79;102287.21;105989;1283;25312;-50
2023/01/13 04:14:00;;;;;;;12.10;5.20;;;;;;;4.11;67.60;102284.64;106277;1279;25385;-50
2023/01/13 04:16:28;;;;;;;10.60;5.30;;;;;;;4.09;67.63;102291.30;106365;1278;25243;-50
2023/01/13 04:18:55;;;;;;;8.60;4.90;;;;;;;4.10;67.80;102295.80;106280;1280;25318;-50
2023/01/13 04:21:22;;;;;;;17.30;6.30;;;;;;;4.13;67.73;102293.30;106316;1280;22657;-50
2023/01/13 04:23:50;;;;;;;8.90;5.70;;;;;;;4.16;67.71;102285.98;105961;1280;25488;-50
2023/01/13 04:26:18;;;;;;;8.10;5.40;;;;;;;4.18;67.69;102285.17;105574;1278;1003713;-50
2023/01/13 04:28:45;;;;;;;9.30;5.30;;;;;;;4.19;67.72;102292.08;106065;1279;24018;-50
2023/01/13 04:31:12;;;;;;;9.90;5.60;;;;;;;4.20;67.81;102293.29;106586;1274;22781;-50
2023/01/13 04:33:40;;;;;;;10.00;6.10;;;;;;;4.23;67.82;102295.98;106717;1277;25389;-50
2023/01/13 04:36:08;;;;;;;11.40;6.50;;;;;;;4.28;67.88;102300.75;106193;1280;25455;-51
2023/01/13 04:38:35;;;;;;;9.80;6.30;;;;;;;4.33;67.90;102305.37;106699;1272;25470;-50
2023/01/13 04:41:02;;;;;;;12.90;6.10;;;;;;;4.36;67.57;102313.89;106840;1267;25471;-50
2023/01/13 04:43:29;;;;;;;9.20;5.60;;;;;;;4.39;67.68;102318.41;107178;1267;25322;-50
2023/01/13 04:45:56;;;;;;;12.90;5.20;;;;;;;4.37;67.10;102318.55;107006;1267;25340;-50
2023/01/13 08:44:38;;;;;;;28.10;14.20;;;;;;;2.68;79.83;102418.23;105338;1276;561889;-57
2023/01/13 08:47:06;;;;;;;41.20;18.10;;;;;;;3.69;74.30;102419.14;106301;1281;25504;-58
2023/01/13 08:49:34;;;;;;;36.80;17.90;;;;;;;3.83;73.18;102419.93;106428;1276;23258;-57
2023/01/13 08:52:01;;;;;;;33.00;18.90;;;;;;;3.90;72.61;102417.91;105543;1276;1003160;-58
2023/01/13 08:54:28;;;;;;;38.60;18.60;;;;;;;3.91;72.25;102414.17;106306;1282;25376;-57
2023/01/13 08:56:55;;;;;;;32.90;16.60;;;;;;;3.92;72.04;102411.11;106296;1277;220956;-57
2023/01/13 08:59:22;;;;;;;31.10;16.20;;;;;;;3.93;71.71;102407.90;106658;1275;24220;-58
2023/01/13 09:01:51;;;;;;;31.20;16.40;;;;;;;3.94;71.42;102404.82;106600;1280;22530;-57
2023/01/13 09:04:20;;;;;;;28.10;16.10;;;;;;;3.92;71.23;102405.12;105971;1276;1003642;-57
2023/01/13 09:06:47;;;;;;;32.70;16.40;;;;;;;3.90;71.07;102404.20;106691;1275;22688;-57
2023/01/13 09:09:15;;;;;;;32.00;15.80;;;;;;;3.91;70.99;102402.70;106647;1275;22952;-58
2023/01/13 09:17:56;;;;;;;26.60;15.60;;;;;;;3.97;70.37;102401.49;102959;1299;1002378;-58
2023/01/13 09:20:24;;;;;;;27.70;15.20;;;;;;;3.95;70.19;102406.75;105170;1283;1003735;-58
2023/01/13 09:22:51;;;;;;;33.80;15.50;;;;;;;3.95;70.44;102405.37;105921;1283;24308;-58
2023/01/13 09:25:18;;;;;;;26.70;15.40;;;;;;;3.98;70.40;102404.95;105773;1285;22651;-59
2023/01/13 09:27:45;;;;;;;31.10;17.10;;;;;;;4.00;70.04;102401.41;105969;1282;24486;-58
2023/01/13 09:30:12;;;;;;;33.40;15.50;;;;;;;4.00;70.13;102402.62;105980;1283;22549;-59
2023/01/13 09:32:40;;;;;;;34.10;17.00;;;;;;;4.08;69.87;102396.88;106087;1280;221648;-59
2023/01/13 09:35:08;;;;;;;32.40;17.70;;;;;;;4.28;69.03;102400.37;106210;1279;22534;-59
2023/01/13 09:37:37;;;;;;;36.00;17.00;;;;;;;4.29;68.58;102393.73;105983;1279;22649;-59
2023/01/13 09:40:16;;;;;;;39.40;17.10;;;;;;;4.28;68.39;102391.80;105466;1279;1015955;-58
2023/01/13 09:45:41;;;;;;;27.00;16.90;;;;;;;4.27;68.24;102379.23;105962;1285;22552;-58
2023/01/13 09:48:17;;;;;;;31.60;16.60;;;;;;;4.27;68.18;102379.41;106213;1286;22540;-58
2023/01/13 09:51:02;;;;;;;32.00;17.10;;;;;;;4.26;68.10;102377.84;106166;1282;22641;-58
2023/01/13 09:53:38;;;;;;;30.10;17.80;;;;;;;4.24;67.90;102376.73;106706;1272;22547;-59
2023/01/13 09:56:08;;;;;;;32.70;18.70;;;;;;;4.21;67.98;102376.14;105863;1277;1002840;-58
2023/01/13 09:58:35;;;;;;;38.40;20.30;;;;;;;4.18;67.96;102377.60;106718;1273;25288;-58
2023/01/13 10:01:12;;;;;;;35.80;18.50;;;;;;;4.16;67.96;102370.84;106051;1273;1003585;-58
2023/01/13 10:03:39;;;;;;;39.90;18.60;;;;;;;4.16;68.09;102371.16;106703;1272;22907;-58
2023/01/13 10:06:11;;;;;;;37.20;17.80;;;;;;;4.15;67.91;102376.83;106728;1272;24245;-58
2023/01/13 10:08:40;;;;;;;31.90;18.20;;;;;;;4.14;67.94;102380.23;106663;1276;24254;-58
2023/01/13 10:14:15;;;;;;;38.60;20.20;;;;;;;3.94;68.58;102379.77;106826;1272;22892;-59
2023/01/13 10:16:42;;;;;;;31.90;20.20;;;;;;;4.07;68.17;102380.53;106052;1273;1003727;-58
2023/01/13 10:19:26;;;;;;;39.00;20.80;;;;;;;4.18;68.00;102381.36;106705;1260;22533;-58
2023/01/13 10:21:59;;;;;;;30.50;19.90;;;;;;;4.18;67.56;102377.42;106717;1272;24264;-58
2023/01/13 10:24:50;;;;;;;31.80;18.00;;;;;;;4.18;67.71;102367.81;105637;1277;1003187;-58
2023/01/13 10:27:39;;;;;;;34.70;19.60;;;;;;;4.18;67.55;102366.44;106739;1272;22631;-58
2023/01/13 10:30:10;;;;;;;44.20;18.30;;;;;;;3.98;68.17;102367.36;105656;1275;1016501;-59
2023/01/13 10:32:37;;;;;;;33.20;18.70;;;;;;;3.90;68.34;102367.80;107141;1272;22540;-60
2023/01/13 10:35:06;;;;;;;44.70;20.00;;;;;;;3.88;68.50;102363.61;106698;1273;24283;-59
2023/01/13 10:37:33;;;;;;;37.70;20.10;;;;;;;3.84;68.22;102356.61;106873;1266;22996;-59
2023/01/13 10:40:00;;;;;;;35.70;19.60;;;;;;;3.79;68.34;102355.27;106325;1268;1003820;-59
2023/01/13 10:42:28;;;;;;;40.60;22.70;;;;;;;3.74;68.06;102357.15;105887;1273;1003023;-60
2023/01/13 10:44:56;;;;;;;43.50;22.20;;;;;;;3.67;68.49;102352.48;106809;1257;22546;-60
2023/01/13 10:47:34;;;;;;;36.90;20.70;;;;;;;3.63;68.33;102354.73;106690;1264;22679;-60
2023/01/13 10:50:07;;;;;;;29.60;19.00;;;;;;;3.58;68.75;102356.65;106683;1269;22583;-59
2023/01/13 10:52:40;;;;;;;61.40;33.90;;;;;;;3.55;68.80;102361.36;106597;1279;22746;-59
2023/01/13 10:55:30;;;;;;;71.00;33.90;;;;;;;3.55;68.83;102359.64;106956;1264;22579;-59
2023/01/13 10:58:16;;;;;;;74.70;37.80;;;;;;;3.54;68.94;102358.75;106490;1275;24358;-59
2023/01/13 11:00:44;;;;;;;82.50;43.30;;;;;;;3.52;69.16;102358.70;106838;1272;22547;-59
2023/01/13 11:03:15;;;;;;;132.50;66.70;;;;;;;3.53;69.32;102362.14;106785;1272;24397;-60
2023/01/13 11:05:48;;;;;;;62.20;38.70;;;;;;;3.53;69.65;102362.14;105991;1270;1003734;-59
2023/01/13 11:08:17;;;;;;;55.50;37.00;;;;;;;3.55;69.49;102364.62;106968;1272;22533;-59
2023/01/13 11:10:45;;;;;;;46.20;27.70;;;;;;;3.56;69.78;102363.11;106946;1272;24260;-59
2023/01/13 11:13:25;;;;;;;31.50;21.00;;;;;;;3.56;69.72;102358.63;105686;1276;1003007;-60
2023/01/13 11:16:10;;;;;;;38.80;19.70;;;;;;;3.55;70.00;102355.35;106668;1277;25487;-59
2023/01/13 11:19:01;;;;;;;35.40;20.80;;;;;;;3.56;70.05;102352.47;106831;1272;22691;-59
2023/01/13 11:21:56;;;;;;;38.70;22.30;;;;;;;3.58;69.86;102352.36;106026;1273;1003034;-59
2023/01/13 11:24:57;;;;;;;41.10;23.00;;;;;;;3.59;69.71;102355.48;106679;1270;24219;-59
2023/01/13 11:27:30;;;;;;;37.70;21.60;;;;;;;3.81;69.27;102347.27;106023;1284;22547;-59
2023/01/13 11:30:12;;;;;;;39.90;22.60;;;;;;;3.88;68.79;102347.48;105829;1279;22571;-59
2023/01/13 11:32:57;;;;;;;;;;;;;;;3.92;68.89;102345.20;106248;1276;24282;-59
2023/01/13 11:35:24;;;;;;;51.40;30.70;;;;;;;3.95;68.65;102342.55;106427;1277;22546;-59
2023/01/13 11:37:54;;;;;;;43.60;25.30;;;;;;;3.97;68.83;102340.39;106363;1276;23000;-60
2023/01/13 11:40:36;;;;;;;45.40;25.60;;;;;;;3.98;68.43;102339.02;106617;1269;22650;-59
2023/01/13 11:43:29;;;;;;;44.90;28.10;;;;;;;3.99;68.55;102340.09;106244;1278;23012;-59
2023/01/13 11:45:59;;;;;;;44.40;27.20;;;;;;;4.01;68.32;102335.34;105786;1283;24055;-60
2023/01/13 11:48:29;;;;;;;56.40;32.00;;;;;;;4.02;68.55;102332.77;105011;1283;1003474;-60
2023/01/13 11:51:01;;;;;;;46.70;26.70;;;;;;;4.03;68.59;102331.61;104917;1283;1002705;-60
2023/01/13 11:53:28;;;;;;;41.60;25.70;;;;;;;4.07;68.41;102336.23;105704;1284;22552;-59
2023/01/13 11:56:57;;;;;;;42.00;25.40;;;;;;;4.10;68.44;102334.41;105805;1288;24277;-59
2023/01/13 11:59:55;;;;;;;76.30;44.80;;;;;;;4.09;68.05;102329.92;105172;1289;22614;-59
2023/01/13 12:03:01;;;;;;;60.80;36.00;;;;;;;4.04;67.85;102321.20;104969;1298;22680;-58
2023/01/13 12:05:47;;;;;;;49.90;28.60;;;;;;;4.00;67.98;102321.73;104255;1302;22571;-59
2023/01/13 12:08:37;;;;;;;39.90;25.50;;;;;;;3.95;67.96;102330.18;104511;1297;22742;-59
2023/01/13 12:11:06;;;;;;;36.50;23.70;;;;;;;3.92;68.17;102333.54;104635;1293;22488;-59
2023/01/13 12:13:59;;;;;;;42.10;20.60;;;;;;;3.92;68.19;102333.16;104635;1298;22566;-59
2023/01/13 12:16:52;;;;;;;36.60;22.80;;;;;;;3.80;68.66;102325.05;103916;1301;545339;-60
2023/01/13 12:19:28;;;;;;;43.00;25.40;;;;;;;3.65;69.07;102329.58;106248;1275;25501;-60
2023/01/13 12:22:11;;;;;;;43.80;22.80;;;;;;;3.64;69.32;102326.98;105273;1283;1003022;-59
2023/01/13 12:24:56;;;;;;;36.10;23.00;;;;;;;3.64;69.28;102329.20;106090;1280;25452;-59
2023/01/13 12:27:42;;;;;;;30.20;20.40;;;;;;;3.65;69.44;102327.17;106079;1282;24354;-59
2023/01/13 12:30:50;;;;;;;39.70;23.40;;;;;;;3.66;69.52;102329.80;104428;1285;1003435;-59
2023/01/13 12:33:36;;;;;;;31.90;20.30;;;;;;;3.65;69.35;102336.44;106167;1284;22740;-59
2023/01/13 12:36:06;;;;;;;38.70;20.30;;;;;;;3.64;69.50;102334.52;105024;1285;1003087;-58
2023/01/13 12:39:17;;;;;;;31.70;20.50;;;;;;;3.63;69.72;102335.85;105816;1286;22576;-58
2023/01/13 12:44:35;;;;;;;34.30;19.50;;;;;;;3.61;69.62;102343.87;105606;1287;23350;-58
2023/01/13 12:47:02;;;;;;;34.10;22.00;;;;;;;3.62;69.74;102343.92;105009;1290;22545;-57
2023/01/13 12:49:33;;;;;;;41.80;23.10;;;;;;;3.64;69.96;102344.14;105586;1287;22566;-58
2023/01/13 12:52:12;;;;;;;35.70;21.00;;;;;;;3.61;69.71;102341.13;105726;1286;22552;-58
2023/01/13 12:54:39;;;;;;;40.50;23.30;;;;;;;3.58;70.02;102338.79;105644;1283;22558;-59
2023/01/13 12:57:19;;;;;;;35.00;21.60;;;;;;;3.54;70.15;102331.98;104960;1286;1003474;-59
2023/01/13 12:59:58;;;;;;;27.50;17.90;;;;;;;3.52;69.86;102336.86;105691;1288;23898;-58
2023/01/13 13:02:27;;;;;;;38.60;24.00;;;;;;;3.48;70.02;102338.47;104895;1285;1003529;-59
2023/01/13 13:04:56;;;;;;;35.10;23.00;;;;;;;3.46;70.25;102334.14;105690;1286;22552;-59
2023/01/13 13:07:29;;;;;;;28.70;16.90;;;;;;;3.45;70.33;102334.08;105693;1290;22573;-59
2023/01/13 13:10:01;;;;;;;26.00;15.80;;;;;;;3.46;70.57;102331.36;105783;1279;26290;-59
2023/01/13 13:15:37;;;;;;;20.50;14.30;;;;;;;3.53;70.93;102322.87;105264;1282;1003569;-59
2023/01/13 13:18:19;;;;;;;19.30;13.30;;;;;;;3.58;70.82;102317.36;106376;1282;22540;-59
2023/01/13 13:20:55;;;;;;;;;;;;;;;3.65;70.87;102325.63;105991;1281;23851;-59
2023/01/13 13:23:32;;;;;;;16.30;11.00;;;;;;;3.70;70.91;102326.16;106307;1284;22567;-59
2023/01/13 13:26:08;;;;;;;16.30;10.20;;;;;;;3.76;70.63;102328.58;105537;1278;1003221;-58
2023/01/13 13:28:37;;;;;;;16.00;9.70;;;;;;;3.82;70.33;102327.55;106317;1278;22565;-59
2023/01/13 13:31:19;;;;;;;12.90;9.40;;;;;;;3.88;70.22;102328.59;106284;1279;22652;-59
2023/01/13 13:33:52;;;;;;;16.00;8.10;;;;;;;3.94;70.08;102334.44;105212;1278;1015645;-59
2023/01/13 13:36:28;;;;;;;9.30;7.50;;;;;;;3.99;69.97;102333.05;106353;1278;22633;-59
2023/01/13 13:48:26;;;;;;;19.50;11.30;;;;;;;4.14;68.48;102330.06;106349;1278;22539;-59
2023/01/13 13:51:01;;;;;;;14.10;9.80;;;;;;;4.12;68.34;102330.88;106358;1279;25402;-59
2023/01/13 13:53:39;;;;;;;14.00;10.10;;;;;;;4.10;68.46;102330.13;106153;1280;24368;-59
2023/01/13 13:56:18;;;;;;;13.50;9.20;;;;;;;4.12;68.73;102330.17;106275;1280;24454;-59
2023/01/13 13:58:46;;;;;;;10.40;8.20;;;;;;;4.14;68.46;102332.32;106329;1278;22618;-59
2023/01/13 14:01:25;;;;;;;10.80;8.30;;;;;;;4.18;68.61;102332.23;106336;1277;25358;-59
2023/01/13 14:04:19;;;;;;;13.50;9.70;;;;;;;4.21;68.22;102328.20;106104;1280;25253;-59
2023/01/13 14:06:57;;;;;;;15.30;9.50;;;;;;;4.21;67.97;102333.72;105968;1268;22559;-58
2023/01/13 14:09:27;;;;;;;14.40;9.80;;;;;;;4.16;67.93;102335.44;105280;1279;1003862;-59
2023/01/13 14:11:55;;;;;;;16.20;10.50;;;;;;;4.11;68.20;102333.24;105555;1263;1002972;-59
2023/01/13 14:14:23;;;;;;;16.50;10.90;;;;;;;4.09;68.25;102337.82;106327;1281;22553;-60
2023/01/13 14:16:51;;;;;;;16.00;10.30;;;;;;;4.08;68.41;102342.44;106368;1279;24278;-60
2023/01/13 14:19:24;;;;;;;18.40;11.60;;;;;;;4.08;68.53;102350.34;106270;1278;24271;-59
2023/01/13 14:21:51;;;;;;;15.70;9.70;;;;;;;4.11;68.57;102348.20;106256;1279;25229;-59
2023/01/13 14:24:19;;;;;;;13.60;9.40;;;;;;;4.12;68.40;102348.21;105329;1278;1003339;-59
2023/01/13 14:26:51;;;;;;;15.70;9.30;;;;;;;4.15;68.47;102349.16;105639;1277;1003243;-59
2023/01/13 14:29:22;;;;;;;43.10;21.00;;;;;;;4.19;68.36;102344.83;106245;1278;23785;-59
2023/01/13 14:31:50;;;;;;;34.10;19.20;;;;;;;4.22;68.20;102340.61;106341;1279;24228;-59
2023/01/13 14:34:18;;;;;;;29.50;19.00;;;;;;;4.21;67.61;102341.25;106420;1278;24311;-59
2023/01/13 14:36:59;;;;;;;30.50;19.10;;;;;;;4.15;67.84;102346.41;106292;1278;24416;-59
2023/01/13 14:39:38;;;;;;;22.00;13.20;;;;;;;4.11;67.65;102344.41;106426;1278;22634;-59
2023/01/13 14:42:12;;;;;;;24.30;15.20;;;;;;;4.07;67.80;102342.39;106054;1284;24242;-59
2023/01/13 14:44:51;;;;;;;19.20;12.00;;;;;;;4.04;67.96;102347.29;106388;1278;24288;-59
2023/01/13 14:47:26;;;;;;;18.40;11.30;;;;;;;4.04;68.23;102355.51;106303;1278;22547;-59
2023/01/13 14:49:57;;;;;;;21.60;11.30;;;;;;;4.06;68.20;102359.54;106415;1264;24260;-59
2023/01/13 14:52:26;;;;;;;10.70;8.30;;;;;;;4.13;68.23;102364.73;106370;1279;22755;-59
2023/01/13 14:54:53;;;;;;;13.40;8.80;;;;;;;4.17;68.11;102360.73;106160;1280;22589;-58
2023/01/13 14:57:31;;;;;;;9.70;7.20;;;;;;;4.23;67.97;102362.61;106339;1279;22541;-59
2023/01/13 15:00:13;;;;;;;15.40;9.90;;;;;;;4.26;67.50;102365.62;106282;1278;26327;-59
2023/01/13 15:02:56;;;;;;;26.80;18.20;;;;;;;4.26;67.23;102365.46;105194;1279;1003172;-59
2023/01/13 15:05:32;;;;;;;21.60;14.80;;;;;;;4.25;67.25;102368.16;105562;1278;1004217;-59
2023/01/13 15:08:09;;;;;;;19.60;12.80;;;;;;;4.23;67.38;102368.79;106285;1278;24406;-59
2023/01/13 15:10:59;;;;;;;18.50;12.70;;;;;;;4.22;67.48;102371.20;106399;1278;22530;-59
2023/01/13 15:13:31;;;;;;;23.30;12.90;;;;;;;4.23;67.48;102371.38;106264;1263;22625;-59
2023/01/13 15:15:59;;;;;;;20.20;13.40;;;;;;;4.22;67.41;102360.70;106280;1278;22537;-59
2023/01/13 15:18:26;;;;;;;24.70;15.50;;;;;;;4.19;67.59;102361.30;105625;1278;1003137;-59
2023/01/13 15:20:53;;;;;;;23.70;14.90;;;;;;;4.18;67.69;102365.07;106350;1278;25601;-59
2023/01/13 15:23:20;;;;;;;16.30;11.30;;;;;;;4.19;67.60;102363.88;106788;1269;24261;-59
2023/01/13 15:25:48;;;;;;;16.20;11.60;;;;;;;4.21;67.92;102364.12;106760;1269;22527;-59
2023/01/13 15:28:17;;;;;;;14.50;9.30;;;;;;;4.25;67.95;102365.62;106803;1269;22645;-59
2023/01/13 15:30:45;;;;;;;10.70;8.20;;;;;;;4.29;67.74;102361.44;106795;1253;25428;-58
2023/01/13 15:33:13;;;;;;;14.90;9.10;;;;;;;4.33;67.57;102362.40;106086;1269;1005259;-59
2023/01/13 15:35:42;;;;;;;11.20;7.60;;;;;;;4.38;67.50;102362.71;106800;1277;25463;-59
2023/01/13 15:38:14;;;;;;;13.80;7.50;;;;;;;4.42;67.19;102360.95;106686;1270;24225;-59
2023/01/13 15:40:41;;;;;;;11.60;7.30;;;;;;;4.45;66.72;102361.73;106799;1269;24538;-59
2023/01/13 15:48:49;;;;;;;11.50;8.10;;;;;;;4.57;65.98;102360.19;106783;1269;25294;-59
2023/01/13 15:51:20;;;;;;;;;;;;;;;4.60;65.86;102355.98;106649;1275;22505;-59
2023/01/13 15:53:48;;;;;;;12.90;9.00;;;;;;;4.63;65.82;102356.23;106769;1269;22536;-58
2023/01/13 15:56:22;;;;;;;13.50;9.50;;;;;;;4.63;65.82;102358.46;106058;1270;1003234;-58
2023/01/13 15:58:49;;;;;;;20.10;13.30;;;;;;;4.65;65.56;102357.82;106789;1269;22533;-58
2023/01/13 16:01:17;;;;;;;17.40;9.60;;;;;;;4.65;65.49;102356.13;106701;1269;24423;-58
2023/01/13 16:03:44;;;;;;;13.70;9.60;;;;;;;4.66;65.48;102355.64;106790;1269;24457;-59
2023/01/13 16:06:23;;;;;;;13.40;9.50;;;;;;;4.68;65.55;102357.41;106685;1272;24230;-58
2023/01/13 16:08:50;;;;;;;15.20;9.10;;;;;;;4.70;65.35;102358.98;106775;1257;22572;-59
2023/01/13 16:11:17;;;;;;;15.40;8.50;;;;;;;4.71;65.48;102358.16;106792;1269;22529;-59
2023/01/13 16:13:44;;;;;;;12.80;8.10;;;;;;;4.74;65.46;102358.25;106753;1272;24275;-59
2023/01/13 16:16:18;;;;;;;10.90;7.90;;;;;;;4.77;65.22;102358.01;106738;1269;24241;-59
2023/01/13 16:18:45;;;;;;;15.70;8.40;;;;;;;4.80;65.23;102359.27;106857;1269;22528;-59